createdAt,value
2019-05-02T00:00:14.017Z,12.93
2019-05-02T00:02:44.115Z,11.53
2019-05-02T00:05:16.303Z,10.30
2019-05-02T00:07:58.506Z,12.43
2019-05-02T00:10:28.368Z,12.67
2019-05-02T00:12:57.927Z,13.57
2019-05-02T00:15:27.237Z,14.93
2019-05-02T00:17:56.874Z,12.40
2019-05-02T00:20:27.486Z,14.27
2019-05-02T00:22:56.905Z,12.93
2019-05-02T00:25:26.159Z,10.63
2019-05-02T00:27:55.400Z,15.63
2019-05-02T00:30:24.600Z,14.50
2019-05-02T00:32:58.204Z,10.77
2019-05-02T00:35:24.847Z,13.10
2019-05-02T00:37:57.365Z,15.97
2019-05-02T00:40:25.753Z,15.87
2019-05-02T00:42:58.188Z,13.83
2019-05-02T00:45:27.019Z,13.03
2019-05-02T00:48:07.443Z,14.33
2019-05-02T00:50:40.616Z,15.00
2019-05-02T00:53:12.255Z,14.93
2019-05-02T00:55:40.891Z,14.97
2019-05-02T00:58:10.199Z,15.27
2019-05-02T01:01:01.421Z,15.00
2019-05-02T01:03:34.669Z,13.73
2019-05-02T01:06:03.984Z,16.13
2019-05-02T01:08:35.703Z,13.63
2019-05-02T01:11:05.047Z,18.03
2019-05-02T01:13:34.389Z,15.13
2019-05-02T01:16:03.622Z,15.67
2019-05-02T01:18:32.713Z,14.70
2019-05-02T01:21:02.831Z,15.20
2019-05-02T01:23:33.010Z,14.83
2019-05-02T01:26:02.394Z,14.60
2019-05-02T01:28:59.755Z,15.47
2019-05-02T01:31:49.971Z,17.03
2019-05-02T01:34:42.025Z,16.43
2019-05-02T01:37:28.048Z,16.50
2019-05-02T01:39:57.467Z,12.37
2019-05-02T01:42:39.390Z,14.87
2019-05-02T01:44:58.159Z,15.67
2019-05-02T01:47:29.045Z,12.00
2019-05-02T01:49:59.222Z,18.63
2019-05-02T01:52:28.504Z,13.03
2019-05-02T01:54:57.578Z,14.13
2019-05-02T01:57:27.052Z,16.23
2019-05-02T01:59:56.261Z,19.97
2019-05-02T02:02:28.124Z,14.83
2019-05-02T02:04:56.854Z,19.17
2019-05-02T02:07:27.299Z,15.67
2019-05-02T02:09:56.532Z,16.23
2019-05-02T02:12:25.798Z,15.10
2019-05-02T02:14:55.524Z,18.23
2019-05-02T02:17:24.987Z,17.60
2019-05-02T02:19:57.655Z,15.97
2019-05-02T02:22:39.070Z,19.47
2019-05-02T02:25:41.599Z,20.57
2019-05-02T02:28:10.866Z,12.97
2019-05-02T02:30:40.416Z,11.63
2019-05-02T02:33:09.919Z,15.90
2019-05-02T02:35:49.461Z,14.77
2019-05-02T02:38:10.666Z,15.33
2019-05-02T02:40:39.992Z,14.40
2019-05-02T02:43:29.884Z,16.53
2019-05-02T02:46:13.737Z,20.23
2019-05-02T02:48:43.046Z,18.90
2019-05-02T02:51:22.111Z,19.53
2019-05-02T02:53:43.188Z,17.33
2019-05-02T02:56:12.621Z,16.90
2019-05-02T02:58:47.463Z,14.57
2019-05-02T03:01:12.960Z,18.40
2019-05-02T03:03:42.259Z,14.53
2019-05-02T03:06:11.423Z,15.90
2019-05-02T03:08:46.608Z,15.60
2019-05-02T03:11:22.316Z,15.87
2019-05-02T03:13:53.497Z,17.07
2019-05-02T03:16:23.627Z,17.93
2019-05-02T03:18:53.348Z,18.70
2019-05-02T03:21:22.777Z,17.10
2019-05-02T03:24:01.640Z,17.73
2019-05-02T03:26:23.250Z,12.53
2019-05-02T03:28:58.523Z,17.10
2019-05-02T03:31:29.583Z,16.87
2019-05-02T03:34:00.261Z,15.00
2019-05-02T03:36:30.039Z,12.20
2019-05-02T03:38:57.245Z,17.00
2019-05-02T03:41:26.559Z,14.43
2019-05-02T03:44:09.990Z,16.00
2019-05-02T03:46:26.814Z,16.93
2019-05-02T03:49:06.157Z,20.57
2019-05-02T03:51:27.144Z,17.60
2019-05-02T03:54:05.642Z,19.13
2019-05-02T03:56:27.496Z,16.03
2019-05-02T03:58:58.262Z,14.00
2019-05-02T04:01:27.652Z,17.70
2019-05-02T04:03:57.136Z,15.77
2019-05-02T04:06:26.720Z,15.87
2019-05-02T04:08:59.855Z,16.33
2019-05-02T04:11:37.829Z,17.70
2019-05-02T04:13:59.046Z,13.97
2019-05-02T04:16:29.797Z,17.57
2019-05-02T04:19:04.769Z,18.03
2019-05-02T04:21:38.133Z,15.73
2019-05-02T04:24:13.293Z,18.37
2019-05-02T04:26:52.777Z,19.40
2019-05-02T04:29:11.255Z,17.07
2019-05-02T04:31:40.630Z,16.40
2019-05-02T04:34:15.723Z,13.87
2019-05-02T04:36:40.788Z,15.77
2019-05-02T04:39:12.613Z,17.03
2019-05-02T04:41:42.364Z,16.10
2019-05-02T04:44:12.909Z,16.73
2019-05-02T04:46:42.152Z,15.53
2019-05-02T04:49:11.488Z,20.77
2019-05-02T04:51:40.685Z,14.13
2019-05-02T04:54:21.841Z,18.43
2019-05-02T04:56:52.313Z,16.37
2019-05-02T04:59:17.880Z,18.13
2019-05-02T05:01:52.766Z,21.23
2019-05-02T05:04:14.409Z,19.97
2019-05-02T05:06:54.936Z,17.67
2019-05-02T05:09:17.904Z,17.90
2019-05-02T05:11:48.216Z,22.67
2019-05-02T05:14:18.020Z,19.43
2019-05-02T05:16:51.707Z,19.47
2019-05-02T05:19:33.542Z,19.60
2019-05-02T05:22:08.784Z,19.40
2019-05-02T05:24:47.340Z,23.70
2019-05-02T05:27:18.995Z,21.93
2019-05-02T05:29:53.544Z,18.17
2019-05-02T05:32:23.355Z,17.87
2019-05-02T05:34:52.747Z,23.50
2019-05-02T05:37:30.143Z,18.47
2019-05-02T05:39:59.533Z,19.23
2019-05-02T05:45:19.377Z,22.80
2019-05-02T05:47:52.301Z,20.83
2019-05-02T05:50:19.470Z,22.30
2019-05-02T05:52:51.964Z,19.00
2019-05-02T05:55:24.455Z,22.43
2019-05-02T05:58:00.064Z,27.90
2019-05-02T06:00:23.451Z,20.63
2019-05-02T06:02:56.534Z,18.70
2019-05-02T06:05:23.469Z,23.50
2019-05-02T06:07:52.662Z,19.97
2019-05-02T06:10:21.775Z,18.80
2019-05-02T06:12:50.835Z,17.77
2019-05-02T06:15:20.145Z,21.43
2019-05-02T06:17:49.809Z,21.37
2019-05-02T06:20:20.253Z,19.70
2019-05-02T06:22:49.501Z,18.40
2019-05-02T06:25:32.550Z,25.37
2019-05-02T06:27:50.074Z,20.60
2019-05-02T06:30:19.497Z,24.33
2019-05-02T06:32:50.008Z,22.93
2019-05-02T06:35:21.137Z,20.83
2019-05-02T06:37:51.975Z,22.07
2019-05-02T06:40:21.473Z,22.67
2019-05-02T06:42:50.985Z,21.83
2019-05-02T06:45:20.460Z,19.47
2019-05-02T06:47:49.676Z,25.10
2019-05-02T06:50:18.913Z,20.87
2019-05-02T06:52:48.426Z,20.47
2019-05-02T06:55:17.934Z,29.23
2019-05-02T06:57:47.232Z,25.07
2019-05-02T07:00:17.074Z,27.17
2019-05-02T07:02:46.279Z,26.27
2019-05-02T07:05:15.693Z,27.13
2019-05-02T07:07:44.868Z,25.27
2019-05-02T07:10:14.300Z,24.77
2019-05-02T07:12:46.175Z,24.87
2019-05-02T07:15:33.638Z,24.40
2019-05-02T07:18:10.632Z,22.97
2019-05-02T07:20:40.486Z,21.53
2019-05-02T07:23:10.476Z,24.50
2019-05-02T07:25:44.067Z,27.90
2019-05-02T07:28:11.795Z,20.33
2019-05-02T07:30:41.282Z,22.97
2019-05-02T07:33:10.623Z,28.10
2019-05-02T07:35:40.312Z,20.37
2019-05-02T07:38:09.595Z,24.03
2019-05-02T07:40:38.856Z,24.93
2019-05-02T07:43:08.211Z,26.10
2019-05-02T07:45:40.336Z,23.47
2019-05-02T07:48:12.698Z,27.13
2019-05-02T07:50:41.141Z,26.27
2019-05-02T07:53:14.317Z,26.03
2019-05-02T07:55:42.725Z,33.40
2019-05-02T07:58:12.135Z,30.27
2019-05-02T08:00:41.602Z,28.90
2019-05-02T08:03:10.899Z,26.23
2019-05-02T08:05:40.229Z,27.73
2019-05-02T08:08:09.592Z,26.70
2019-05-02T08:10:38.873Z,21.17
2019-05-02T08:13:11.991Z,27.40
2019-05-02T08:15:39.211Z,25.97
2019-05-02T08:18:08.484Z,27.70
2019-05-02T08:20:37.755Z,23.73
2019-05-02T08:23:07.096Z,30.40
2019-05-02T08:25:36.337Z,27.27
2019-05-02T08:28:24.835Z,29.17
2019-05-02T08:30:56.603Z,27.27
2019-05-02T08:33:29.475Z,20.83
2019-05-02T08:35:56.860Z,25.13
2019-05-02T08:38:26.334Z,23.90
2019-05-02T08:40:55.633Z,25.10
2019-05-02T08:43:24.816Z,26.93
2019-05-02T08:45:54.112Z,24.50
2019-05-02T08:48:23.333Z,27.70
2019-05-02T08:50:52.552Z,25.17
2019-05-02T08:53:22.267Z,27.53
2019-05-02T08:55:51.767Z,29.47
2019-05-02T08:58:20.951Z,22.57
2019-05-02T09:00:59.391Z,27.13
2019-05-02T09:03:28.729Z,29.83
2019-05-02T09:06:05.618Z,31.20
2019-05-02T09:08:28.975Z,27.70
2019-05-02T09:10:58.085Z,24.73
2019-05-02T09:13:29.447Z,27.90
2019-05-02T09:15:58.289Z,28.87
2019-05-02T09:18:35.527Z,24.57
2019-05-02T09:20:58.275Z,31.20
2019-05-02T09:23:32.370Z,28.10
2019-05-02T09:25:58.798Z,24.30
2019-05-02T09:28:28.056Z,28.03
2019-05-02T09:31:02.029Z,27.50
2019-05-02T09:33:27.987Z,23.53
2019-05-02T09:35:57.187Z,28.60
2019-05-02T09:38:26.420Z,27.87
2019-05-02T09:40:56.283Z,22.50
2019-05-02T09:43:29.378Z,25.03
2019-05-02T09:45:56.555Z,27.67
2019-05-02T09:48:26.938Z,27.07
2019-05-02T09:50:58.017Z,26.13
2019-05-02T09:53:27.305Z,24.20
2019-05-02T09:55:58.068Z,25.07
2019-05-02T09:58:27.362Z,25.47
2019-05-02T10:01:15.666Z,27.67
2019-05-02T10:03:44.937Z,24.73
2019-05-02T10:06:18.154Z,26.33
2019-05-02T10:08:46.577Z,27.50
2019-05-02T10:11:17.016Z,22.33
2019-05-02T10:13:47.060Z,25.87
2019-05-02T10:16:17.945Z,22.63
2019-05-02T10:18:47.311Z,20.60
2019-05-02T10:21:17.262Z,25.10
2019-05-02T10:23:46.649Z,25.53
2019-05-02T10:26:20.031Z,21.87
2019-05-02T10:28:50.470Z,26.90
2019-05-02T10:31:18.276Z,23.67
2019-05-02T10:33:47.589Z,26.40
2019-05-02T10:36:19.631Z,23.13
2019-05-02T10:38:49.103Z,22.37
2019-05-02T10:41:18.675Z,20.57
2019-05-02T10:43:52.010Z,24.73
2019-05-02T10:46:27.781Z,19.90
2019-05-02T10:49:05.431Z,20.77
2019-05-02T10:51:43.345Z,26.10
2019-05-02T10:54:08.056Z,22.90
2019-05-02T10:56:37.278Z,26.63
2019-05-02T10:59:06.615Z,27.20
2019-05-02T11:02:10.364Z,22.63
2019-05-02T11:04:44.182Z,21.30
2019-05-02T11:07:17.127Z,27.63
2019-05-02T11:09:44.480Z,32.60
2019-05-02T11:12:24.308Z,25.97
2019-05-02T11:15:07.569Z,22.90
2019-05-02T11:17:39.785Z,23.83
2019-05-02T11:20:12.286Z,25.00
2019-05-02T11:22:42.746Z,26.97
2019-05-02T11:25:12.165Z,22.03
2019-05-02T11:27:41.872Z,27.27
2019-05-02T11:30:16.861Z,28.63
2019-05-02T11:32:43.813Z,23.53
2019-05-02T11:35:13.158Z,22.10
2019-05-02T11:37:42.418Z,24.40
2019-05-02T11:40:12.861Z,29.80
2019-05-02T11:42:42.304Z,25.73
2019-05-02T11:45:12.138Z,24.73
2019-05-02T11:47:42.269Z,30.47
2019-05-02T11:50:14.896Z,24.83
2019-05-02T11:52:44.067Z,27.47
2019-05-02T11:55:13.395Z,28.73
2019-05-02T11:57:42.829Z,31.27
2019-05-02T12:00:12.643Z,33.93
2019-05-02T12:02:59.075Z,33.80
2019-05-02T12:05:35.645Z,29.80
2019-05-02T12:08:07.933Z,35.33
2019-05-02T12:10:36.757Z,28.90
2019-05-02T12:13:06.684Z,34.60
2019-05-02T12:15:37.275Z,32.73
2019-05-02T12:18:06.570Z,34.63
2019-05-02T12:20:36.845Z,26.77
2019-05-02T12:23:08.983Z,31.07
2019-05-02T12:25:37.045Z,31.70
2019-05-02T12:28:06.835Z,27.50
2019-05-02T12:30:37.813Z,25.47
2019-05-02T12:33:07.425Z,29.40
2019-05-02T12:35:37.057Z,27.63
2019-05-02T12:38:06.291Z,24.17
2019-05-02T12:40:35.627Z,31.03
2019-05-02T12:43:05.823Z,22.93
2019-05-02T12:45:35.066Z,23.50
2019-05-02T12:48:04.352Z,22.20
2019-05-02T12:50:48.630Z,28.17
2019-05-02T12:53:17.731Z,25.57
2019-05-02T12:55:46.922Z,26.33
2019-05-02T12:58:16.053Z,25.40
2019-05-02T13:00:46.522Z,26.10
2019-05-02T13:03:36.619Z,28.13
2019-05-02T13:06:06.017Z,29.43
2019-05-02T13:08:46.086Z,31.57
2019-05-02T13:11:23.911Z,27.40
2019-05-02T13:13:53.483Z,30.80
2019-05-02T13:16:23.005Z,29.00
2019-05-02T13:18:52.192Z,25.60
2019-05-02T13:21:38.718Z,29.20
2019-05-02T13:24:07.444Z,26.70
2019-05-02T13:27:01.788Z,25.40
2019-05-02T13:29:32.214Z,20.40
2019-05-02T13:32:26.830Z,23.67
2019-05-02T13:35:22.288Z,24.37
2019-05-02T13:37:53.800Z,21.37
2019-05-02T13:40:33.606Z,20.20
2019-05-02T13:43:02.843Z,21.50
2019-05-02T13:45:52.732Z,16.50
2019-05-02T13:48:21.815Z,18.77
2019-05-02T13:50:51.817Z,17.80
2019-05-02T13:53:22.675Z,17.33
2019-05-02T13:55:58.116Z,15.53
2019-05-02T13:58:29.104Z,16.87
2019-05-02T14:00:58.870Z,13.23
2019-05-02T14:03:28.109Z,17.03
2019-05-02T14:05:57.304Z,16.73
2019-05-02T14:08:37.150Z,17.00
2019-05-02T14:11:24.602Z,23.03
2019-05-02T14:13:53.979Z,24.27
2019-05-02T14:16:23.334Z,23.03
2019-05-02T14:18:53.008Z,22.77
2019-05-02T14:21:22.514Z,22.83
2019-05-02T14:23:51.944Z,16.70
2019-05-02T14:26:31.135Z,16.50
2019-05-02T14:29:02.575Z,13.13
2019-05-02T14:31:32.403Z,15.90
2019-05-02T14:34:21.613Z,11.57
2019-05-02T14:36:53.096Z,10.57
2019-05-02T14:39:22.578Z,12.03
2019-05-02T14:41:52.585Z,11.57
2019-05-02T14:44:25.226Z,8.53
2019-05-02T14:46:52.716Z,9.63
2019-05-02T14:49:25.432Z,10.13
2019-05-02T14:51:52.727Z,9.53
2019-05-02T14:54:22.908Z,8.87
2019-05-02T14:56:57.008Z,9.07
2019-05-02T14:59:28.747Z,10.93
2019-05-02T15:02:05.693Z,9.73
2019-05-02T15:04:32.147Z,8.40
2019-05-02T15:07:02.048Z,8.50
2019-05-02T15:09:32.730Z,9.50
2019-05-02T15:12:08.221Z,6.50
2019-05-02T15:14:35.176Z,9.50
2019-05-02T15:17:05.280Z,8.80
2019-05-02T15:19:34.422Z,6.20
2019-05-02T15:22:03.924Z,7.53
2019-05-02T15:24:37.346Z,7.67
2019-05-02T15:27:12.178Z,6.70
2019-05-02T15:29:34.970Z,5.83
2019-05-02T15:32:37.309Z,5.03
2019-05-02T15:35:29.027Z,5.00
2019-05-02T15:38:02.710Z,6.83
2019-05-02T15:43:02.846Z,4.40
2019-05-02T15:45:29.763Z,6.50
2019-05-02T15:47:58.926Z,6.00
2019-05-02T15:50:28.037Z,7.23
2019-05-02T15:53:09.415Z,3.90
2019-05-02T15:55:39.694Z,4.70
2019-05-02T15:58:04.306Z,4.10
2019-05-02T16:00:37.143Z,4.00
2019-05-02T16:03:06.358Z,2.47
2019-05-02T16:05:36.526Z,4.03
2019-05-02T16:08:08.808Z,3.30
2019-05-02T16:10:38.456Z,3.43
2019-05-02T16:13:15.457Z,2.27
2019-05-02T16:15:40.082Z,4.08
2019-05-02T16:18:10.251Z,5.60
2019-05-02T16:21:07.633Z,3.63
2019-05-02T16:23:35.898Z,3.87
2019-05-02T16:26:05.934Z,1.70
2019-05-02T16:28:41.182Z,2.43
2019-05-02T16:31:12.455Z,1.60
2019-05-02T16:33:41.785Z,5.53
2019-05-02T16:36:12.632Z,2.57
2019-05-02T16:38:42.447Z,1.27
2019-05-02T16:41:11.827Z,4.20
2019-05-02T16:43:41.917Z,2.33
2019-05-02T16:46:14.135Z,2.60
2019-05-02T16:48:42.683Z,1.63
2019-05-02T16:51:29.877Z,2.30
2019-05-02T16:53:42.940Z,2.03
2019-05-02T16:56:12.153Z,2.23
2019-05-02T16:58:43.307Z,4.60
2019-05-02T17:01:14.889Z,1.30
2019-05-02T17:03:43.690Z,2.23
2019-05-02T17:06:16.950Z,2.23
2019-05-02T17:08:57.486Z,1.40
2019-05-02T17:11:37.191Z,1.67
2019-05-02T17:14:07.179Z,1.30
2019-05-02T17:16:37.410Z,1.97
2019-05-02T17:19:06.619Z,4.37
2019-05-02T17:21:52.416Z,4.40
2019-05-02T17:24:07.154Z,2.00
2019-05-02T17:26:36.359Z,1.50
2019-05-02T17:29:05.632Z,6.77
2019-05-02T17:31:34.790Z,2.00
2019-05-02T17:34:03.923Z,4.57
2019-05-02T17:36:33.083Z,2.60
2019-05-02T17:39:06.305Z,3.57
2019-05-02T17:41:37.135Z,4.10
2019-05-02T17:44:03.934Z,3.07
2019-05-02T17:46:33.080Z,1.47
2019-05-02T17:49:02.564Z,5.30
2019-05-02T17:52:11.247Z,1.33
2019-05-02T17:54:42.330Z,1.43
2019-05-02T17:57:11.901Z,1.53
2019-05-02T17:59:42.180Z,6.60
2019-05-02T18:02:18.387Z,1.40
2019-05-02T18:04:52.128Z,8.17
2019-05-02T18:07:18.528Z,4.67
2019-05-02T18:09:48.109Z,7.90
2019-05-02T18:12:17.292Z,2.97
2019-05-02T18:14:46.395Z,5.43
2019-05-02T18:17:15.650Z,4.20
2019-05-02T18:19:44.895Z,5.10
2019-05-02T18:22:23.352Z,3.50
2019-05-02T18:24:46.389Z,2.73
2019-05-02T18:27:15.757Z,3.60
2019-05-02T18:29:45.651Z,0.80
2019-05-02T18:32:17.517Z,2.63
2019-05-02T18:34:46.437Z,1.90
2019-05-02T18:37:15.586Z,9.08
2019-05-02T18:39:49.887Z,2.10
2019-05-02T18:42:25.491Z,0.80
2019-05-02T18:45:05.043Z,1.20
2019-05-02T18:47:34.552Z,0.97
2019-05-02T18:50:06.061Z,1.50
2019-05-02T18:52:38.636Z,1.20
2019-05-02T18:55:06.410Z,1.63
2019-05-02T18:57:35.561Z,1.20
2019-05-02T19:00:05.263Z,1.60
2019-05-02T19:02:35.692Z,0.90
2019-05-02T19:05:06.171Z,2.67
2019-05-02T19:07:35.930Z,1.77
2019-05-02T19:10:07.271Z,2.47
2019-05-02T19:12:36.480Z,1.43
2019-05-02T19:15:07.109Z,1.70
2019-05-02T19:17:38.553Z,1.70
2019-05-02T19:20:22.147Z,2.17
2019-05-02T19:22:56.330Z,1.10
2019-05-02T19:25:22.791Z,5.00
2019-05-02T19:27:59.662Z,2.70
2019-05-02T19:30:29.995Z,2.60
2019-05-02T19:33:05.982Z,2.03
2019-05-02T19:35:29.976Z,3.30
2019-05-02T19:37:59.247Z,3.47
2019-05-02T19:40:28.510Z,4.62
2019-05-02T19:43:03.369Z,3.80
2019-05-02T19:45:28.945Z,2.60
2019-05-02T19:47:58.225Z,2.50
2019-05-02T19:50:46.198Z,3.50
2019-05-02T19:53:18.503Z,2.83
2019-05-02T19:55:46.460Z,2.13
2019-05-02T19:58:15.806Z,2.23
2019-05-02T20:00:46.395Z,1.80
2019-05-02T20:03:21.704Z,1.13
2019-05-02T20:05:48.416Z,2.60
2019-05-02T20:08:22.840Z,1.13
2019-05-02T20:10:56.863Z,1.47
2019-05-02T20:13:28.313Z,3.27
2019-05-02T20:16:04.486Z,1.20
2019-05-02T20:18:36.724Z,1.83
2019-05-02T20:21:11.751Z,1.60
2019-05-02T20:23:43.188Z,5.40
2019-05-02T20:26:15.228Z,2.63
2019-05-02T20:28:44.224Z,2.37
2019-05-02T20:31:14.482Z,2.20
2019-05-02T20:33:43.672Z,3.90
2019-05-02T20:36:12.928Z,2.50
2019-05-02T20:38:42.324Z,1.57
2019-05-02T20:41:12.737Z,4.20
2019-05-02T20:43:44.720Z,4.63
2019-05-02T20:46:13.086Z,3.03
2019-05-02T20:48:42.328Z,5.03
2019-05-02T20:51:17.718Z,2.27
2019-05-02T20:53:46.970Z,2.13
2019-05-02T20:56:16.333Z,1.70
2019-05-02T20:58:46.014Z,3.47
2019-05-02T21:01:15.261Z,2.27
2019-05-02T21:03:44.519Z,1.40
2019-05-02T21:06:43.966Z,1.43
2019-05-02T21:09:34.803Z,2.80
2019-05-02T21:12:06.097Z,5.13
2019-05-02T21:14:35.383Z,1.43
2019-05-02T21:17:04.629Z,2.07
2019-05-02T21:19:34.057Z,2.80
2019-05-02T21:22:07.922Z,1.83
2019-05-02T21:24:37.219Z,2.03
2019-05-02T21:27:06.459Z,3.63
2019-05-02T21:29:35.830Z,3.40
2019-05-02T21:32:05.276Z,1.70
2019-05-02T21:34:34.489Z,3.33
2019-05-02T21:37:03.788Z,3.37
2019-05-02T21:39:33.047Z,2.70
2019-05-02T21:42:02.460Z,4.57
2019-05-02T21:44:31.715Z,4.10
2019-05-02T21:47:02.863Z,2.40
2019-05-02T21:49:49.829Z,2.73
2019-05-02T21:52:28.448Z,5.77
2019-05-02T21:55:04.750Z,2.30
2019-05-02T21:57:34.054Z,1.40
2019-05-02T22:00:03.713Z,4.83
2019-05-02T22:02:33.136Z,1.00
2019-05-02T22:05:02.464Z,2.00
2019-05-02T22:07:32.343Z,1.53
2019-05-02T22:10:12.135Z,2.27
2019-05-02T22:12:42.264Z,2.10
2019-05-02T22:15:12.855Z,4.37
2019-05-02T22:17:42.134Z,2.33
2019-05-02T22:20:12.375Z,2.93
2019-05-02T22:22:42.652Z,1.47
2019-05-02T22:25:12.125Z,2.07
2019-05-02T22:27:41.377Z,4.07
2019-05-02T22:30:11.966Z,6.70
2019-05-02T22:32:42.742Z,5.30
2019-05-02T22:35:12.340Z,1.87
2019-05-02T22:37:43.389Z,2.73
2019-05-02T22:40:15.183Z,1.10
2019-05-02T22:42:44.667Z,3.30
2019-05-02T22:45:14.502Z,3.80
2019-05-02T22:47:43.746Z,2.10
2019-05-02T22:50:14.099Z,2.10
2019-05-02T22:52:43.376Z,3.07
2019-05-02T22:55:13.214Z,3.13
2019-05-02T22:57:43.963Z,3.37
2019-05-02T23:00:13.715Z,3.00
2019-05-02T23:02:42.917Z,1.03
2019-05-02T23:05:12.481Z,3.07
2019-05-02T23:07:41.960Z,1.67
2019-05-02T23:10:12.659Z,3.30
2019-05-02T23:12:42.371Z,1.47
2019-05-02T23:15:12.601Z,0.93
2019-05-02T23:17:42.783Z,3.77
2019-05-02T23:20:12.778Z,0.90
2019-05-02T23:22:42.310Z,1.97
2019-05-02T23:25:29.268Z,2.57
2019-05-02T23:28:02.933Z,1.70
2019-05-02T23:30:32.345Z,5.00
2019-05-02T23:33:03.153Z,1.40
2019-05-02T23:35:34.323Z,2.93
2019-05-02T23:38:03.434Z,2.00
2019-05-02T23:40:32.918Z,2.43
2019-05-02T23:43:02.035Z,4.33
2019-05-02T23:45:31.670Z,3.20
2019-05-02T23:48:02.125Z,2.73
2019-05-02T23:50:31.539Z,1.83
2019-05-02T23:53:02.308Z,1.97
2019-05-02T23:55:32.214Z,1.63
2019-05-02T23:58:02.925Z,1.87
